createdAt,value
2018-05-02T00:01:32.357Z,83.88
2018-05-02T00:02:32.420Z,83.88
2018-05-02T00:04:25.412Z,84.26
2018-05-02T00:05:25.457Z,83.40
2018-05-02T00:07:18.440Z,84.07
2018-05-02T00:08:18.491Z,83.40
2018-05-02T00:10:11.474Z,83.88
2018-05-02T00:11:11.528Z,83.69
2018-05-02T00:13:04.514Z,83.88
2018-05-02T00:14:04.565Z,83.74
2018-05-02T00:15:57.541Z,83.65
2018-05-02T00:16:57.598Z,83.84
2018-05-02T00:18:50.583Z,83.65
2018-05-02T00:19:50.634Z,83.84
2018-05-02T00:21:43.618Z,84.12
2018-05-02T00:22:43.675Z,83.84
2018-05-02T00:24:36.660Z,84.22
2018-05-02T00:25:36.709Z,83.65
2018-05-02T00:27:29.699Z,83.84
2018-05-02T00:28:29.777Z,84.03
2018-05-02T00:30:22.725Z,84.03
2018-05-02T00:31:22.783Z,83.74
2018-05-02T00:33:15.774Z,83.74
2018-05-02T00:34:15.823Z,83.65
2018-05-02T00:36:08.805Z,83.65
2018-05-02T00:37:08.861Z,83.84
2018-05-02T00:39:01.846Z,84.03
2018-05-02T00:40:01.897Z,83.94
2018-05-02T00:41:54.876Z,84.03
2018-05-02T00:42:54.933Z,84.31
2018-05-02T00:44:47.916Z,84.50
2018-05-02T00:45:47.972Z,84.41
2018-05-02T00:47:40.961Z,83.94
2018-05-02T00:48:41.007Z,83.84
2018-05-02T00:50:33.982Z,83.84
2018-05-02T00:51:34.043Z,84.22
2018-05-02T00:53:27.032Z,83.94
2018-05-02T00:54:27.077Z,84.31
2018-05-02T00:56:20.056Z,84.12
2018-05-02T00:57:20.114Z,84.50
2018-05-02T00:59:13.094Z,84.59
2018-05-02T01:00:13.156Z,84.12
2018-05-02T01:02:06.123Z,84.59
2018-05-02T01:03:06.183Z,84.31
2018-05-02T01:04:59.168Z,85.07
2018-05-02T01:05:59.216Z,84.59
2018-05-02T01:07:52.197Z,84.69
2018-05-02T01:08:52.253Z,84.41
2018-05-02T01:10:45.230Z,84.12
2018-05-02T01:11:45.317Z,83.65
2018-05-02T01:13:38.274Z,84.50
2018-05-02T01:14:38.321Z,84.50
2018-05-02T01:16:31.301Z,84.08
2018-05-02T01:17:31.359Z,84.08
2018-05-02T01:19:24.349Z,84.46
2018-05-02T01:20:24.392Z,84.55
2018-05-02T01:22:17.371Z,84.55
2018-05-02T01:23:17.427Z,84.94
2018-05-02T01:25:10.418Z,84.74
2018-05-02T01:26:10.460Z,84.94
2018-05-02T01:28:03.454Z,84.65
2018-05-02T01:29:03.501Z,84.84
2018-05-02T01:30:56.489Z,84.55
2018-05-02T01:31:56.548Z,84.94
2018-05-02T01:33:49.539Z,84.74
2018-05-02T01:34:49.585Z,84.46
2018-05-02T01:36:42.559Z,84.74
2018-05-02T01:37:42.619Z,84.36
2018-05-02T01:39:35.607Z,84.94
2018-05-02T01:40:35.656Z,84.94
2018-05-02T01:42:28.627Z,84.84
2018-05-02T01:43:28.688Z,84.65
2018-05-02T01:45:21.673Z,84.65
2018-05-02T01:46:21.724Z,84.94
2018-05-02T01:48:14.707Z,85.31
2018-05-02T01:49:14.758Z,85.50
2018-05-02T01:51:07.735Z,85.31
2018-05-02T01:52:07.792Z,85.03
2018-05-02T01:54:00.780Z,84.94
2018-05-02T01:55:00.828Z,85.41
2018-05-02T01:56:53.814Z,85.69
2018-05-02T01:57:53.872Z,85.60
2018-05-02T01:59:46.854Z,85.41
2018-05-02T02:00:46.905Z,85.50
2018-05-02T02:02:39.884Z,85.03
2018-05-02T02:03:39.938Z,84.84
2018-05-02T02:05:32.930Z,85.13
2018-05-02T02:06:32.977Z,85.31
2018-05-02T02:08:25.967Z,85.41
2018-05-02T02:09:26.021Z,85.13
2018-05-02T02:11:18.997Z,85.31
2018-05-02T02:12:19.056Z,85.50
2018-05-02T02:14:12.037Z,84.84
2018-05-02T02:15:12.087Z,85.31
2018-05-02T02:17:05.069Z,85.50
2018-05-02T02:18:05.123Z,85.31
2018-05-02T02:19:58.106Z,85.41
2018-05-02T02:20:58.156Z,85.31
2018-05-02T02:22:51.132Z,85.13
2018-05-02T02:23:51.197Z,85.31
2018-05-02T02:25:44.178Z,85.41
2018-05-02T02:26:44.226Z,84.61
2018-05-02T02:28:37.722Z,85.36
2018-05-02T02:29:37.767Z,85.36
2018-05-02T02:31:30.844Z,85.41
2018-05-02T02:32:30.801Z,85.03
2018-05-02T02:34:23.791Z,85.31
2018-05-02T02:35:23.833Z,84.89
2018-05-02T02:37:16.815Z,85.50
2018-05-02T02:38:16.981Z,85.41
2018-05-02T02:40:09.851Z,85.50
2018-05-02T02:41:09.901Z,85.50
2018-05-02T02:43:02.876Z,85.50
2018-05-02T02:44:02.934Z,85.13
2018-05-02T02:45:55.915Z,85.22
2018-05-02T02:46:55.966Z,85.41
2018-05-02T02:48:48.964Z,86.26
2018-05-02T02:49:49.008Z,85.78
2018-05-02T02:51:41.987Z,86.07
2018-05-02T02:52:42.043Z,85.65
2018-05-02T02:54:35.026Z,85.36
2018-05-02T02:55:35.079Z,85.27
2018-05-02T02:57:28.051Z,85.22
2018-05-02T02:58:28.110Z,85.31
2018-05-02T03:00:21.098Z,86.07
2018-05-02T03:01:21.143Z,85.65
2018-05-02T03:03:14.125Z,85.84
2018-05-02T03:04:14.178Z,85.65
2018-05-02T03:06:07.165Z,85.55
2018-05-02T03:07:07.212Z,85.36
2018-05-02T03:09:00.195Z,85.84
2018-05-02T03:10:00.242Z,85.84
2018-05-02T03:11:53.219Z,86.03
2018-05-02T03:12:53.276Z,85.27
2018-05-02T03:14:46.264Z,85.93
2018-05-02T03:15:46.316Z,85.93
2018-05-02T03:17:39.295Z,85.27
2018-05-02T03:18:39.349Z,85.27
2018-05-02T03:20:32.334Z,85.27
2018-05-02T03:21:32.382Z,85.84
2018-05-02T03:23:25.360Z,85.17
2018-05-02T03:24:25.417Z,85.36
2018-05-02T03:26:18.401Z,85.93
2018-05-02T03:27:18.450Z,85.93
2018-05-02T03:29:11.945Z,86.12
2018-05-02T03:30:11.991Z,85.17
2018-05-02T03:32:04.972Z,85.93
2018-05-02T03:33:05.031Z,85.74
2018-05-02T03:34:58.012Z,85.36
2018-05-02T03:35:58.062Z,85.08
2018-05-02T03:37:51.037Z,85.27
2018-05-02T03:38:51.093Z,85.84
2018-05-02T03:40:44.075Z,86.03
2018-05-02T03:41:44.126Z,86.41
2018-05-02T03:43:37.105Z,85.84
2018-05-02T03:44:37.159Z,85.74
2018-05-02T03:46:30.148Z,85.55
2018-05-02T03:47:30.200Z,86.12
2018-05-02T03:49:23.181Z,85.46
2018-05-02T03:50:23.232Z,85.84
2018-05-02T03:52:16.211Z,85.46
2018-05-02T03:53:16.264Z,85.74
2018-05-02T03:55:09.247Z,86.22
2018-05-02T03:56:09.295Z,86.12
2018-05-02T03:58:02.274Z,86.41
2018-05-02T03:59:02.335Z,86.69
2018-05-02T04:00:55.314Z,86.12
2018-05-02T04:01:55.364Z,86.31
2018-05-02T04:03:48.342Z,85.93
2018-05-02T04:04:48.396Z,85.65
2018-05-02T04:06:41.377Z,86.31
2018-05-02T04:07:41.429Z,86.31
2018-05-02T04:09:34.419Z,86.31
2018-05-02T04:10:34.463Z,86.31
2018-05-02T04:12:27.439Z,86.31
2018-05-02T04:13:27.499Z,86.31
2018-05-02T04:15:20.477Z,85.74
2018-05-02T04:16:20.529Z,85.17
2018-05-02T04:18:13.512Z,86.12
2018-05-02T04:19:13.564Z,86.22
2018-05-02T04:21:06.546Z,86.12
2018-05-02T04:22:06.594Z,86.69
2018-05-02T04:23:59.578Z,86.03
2018-05-02T04:24:59.636Z,86.03
2018-05-02T04:26:52.619Z,86.98
2018-05-02T04:27:52.668Z,86.60
2018-05-02T04:29:45.650Z,86.88
2018-05-02T04:30:45.700Z,86.88
2018-05-02T04:32:38.683Z,86.98
2018-05-02T04:33:38.742Z,86.98
2018-05-02T04:35:31.732Z,86.79
2018-05-02T04:36:31.779Z,86.79
2018-05-02T04:38:24.754Z,86.88
2018-05-02T04:39:24.810Z,86.88
2018-05-02T04:41:17.794Z,86.88
2018-05-02T04:42:17.841Z,86.79
2018-05-02T04:44:10.824Z,86.69
2018-05-02T04:45:10.883Z,86.79
2018-05-02T04:47:03.873Z,87.07
2018-05-02T04:48:03.922Z,86.69
2018-05-02T04:49:56.904Z,86.74
2018-05-02T04:50:56.955Z,86.69
2018-05-02T04:52:50.004Z,86.64
2018-05-02T04:53:49.987Z,86.55
2018-05-02T04:55:42.969Z,85.97
2018-05-02T04:56:43.023Z,86.26
2018-05-02T04:58:35.996Z,86.93
2018-05-02T04:59:36.067Z,86.35
2018-05-02T05:01:29.039Z,86.55
2018-05-02T05:02:29.091Z,86.55
2018-05-02T05:04:22.064Z,86.93
2018-05-02T05:05:22.126Z,86.74
2018-05-02T05:07:15.103Z,86.93
2018-05-02T05:08:15.152Z,86.45
2018-05-02T05:10:08.144Z,86.93
2018-05-02T05:11:08.195Z,86.45
2018-05-02T05:13:01.173Z,86.83
2018-05-02T05:14:01.226Z,86.74
2018-05-02T05:15:54.215Z,87.12
2018-05-02T05:16:54.264Z,87.12
2018-05-02T05:18:47.240Z,86.83
2018-05-02T05:19:47.297Z,86.93
2018-05-02T05:21:40.280Z,86.59
2018-05-02T05:22:40.334Z,87.06
2018-05-02T05:24:34.824Z,86.97
2018-05-02T05:25:34.877Z,86.68
2018-05-02T05:27:27.860Z,87.06
2018-05-02T05:28:27.910Z,87.06
2018-05-02T05:30:20.891Z,86.97
2018-05-02T05:31:20.942Z,87.06
2018-05-02T05:33:13.927Z,87.25
2018-05-02T05:34:13.984Z,86.87
2018-05-02T05:36:06.966Z,87.16
2018-05-02T05:37:07.021Z,87.30
2018-05-02T05:39:00.011Z,87.20
2018-05-02T05:40:00.059Z,86.91
2018-05-02T05:41:53.045Z,86.82
2018-05-02T05:42:53.092Z,86.82
2018-05-02T05:44:46.071Z,87.20
2018-05-02T05:45:46.127Z,86.54
2018-05-02T05:47:39.117Z,87.34
2018-05-02T05:48:39.162Z,87.34
2018-05-02T05:50:32.147Z,86.30
2018-05-02T05:51:32.197Z,86.11
2018-05-02T05:53:25.175Z,86.20
2018-05-02T05:54:25.297Z,86.30
2018-05-02T05:56:18.216Z,85.68
2018-05-02T05:57:18.265Z,85.30
2018-05-02T05:59:11.245Z,85.30
2018-05-02T06:00:11.303Z,85.77
2018-05-02T06:02:04.283Z,85.53
2018-05-02T06:03:04.335Z,85.05
2018-05-02T06:04:57.317Z,84.72
2018-05-02T06:05:57.375Z,85.00
2018-05-02T06:07:50.356Z,85.04
2018-05-02T06:08:50.405Z,84.42
2018-05-02T06:10:43.391Z,84.98
2018-05-02T06:11:43.441Z,83.73
2018-05-02T06:13:36.424Z,77.72
2018-05-02T06:14:36.478Z,73.43
2018-05-02T06:16:29.474Z,68.27
2018-05-02T06:17:29.516Z,64.85
2018-05-02T06:19:22.505Z,60.72
2018-05-02T06:20:22.561Z,58.71
2018-05-02T06:22:15.553Z,56.98
2018-05-02T06:23:15.603Z,57.14
2018-05-02T06:25:08.591Z,54.09
2018-05-02T06:26:08.670Z,54.19
2018-05-02T06:28:01.645Z,52.87
2018-05-02T06:29:01.694Z,51.93
2018-05-02T06:30:54.694Z,49.51
2018-05-02T06:31:54.796Z,50.01
2018-05-02T06:33:48.252Z,48.71
2018-05-02T06:34:48.313Z,47.72
2018-05-02T06:36:41.315Z,49.94
2018-05-02T06:37:41.471Z,47.56
2018-05-02T06:39:34.365Z,46.78
2018-05-02T06:40:34.430Z,46.77
2018-05-02T06:42:27.436Z,47.70
2018-05-02T06:43:27.505Z,48.76
2018-05-02T06:45:20.491Z,48.57
2018-05-02T06:46:20.557Z,47.82
2018-05-02T06:48:13.560Z,49.22
2018-05-02T06:49:13.698Z,48.28
2018-05-02T06:51:06.626Z,49.31
2018-05-02T06:52:06.686Z,48.57
2018-05-02T06:53:59.690Z,47.92
2018-05-02T06:54:59.753Z,47.56
2018-05-02T06:56:52.761Z,46.59
2018-05-02T06:57:52.827Z,45.58
2018-05-02T06:59:45.836Z,43.79
2018-05-02T07:00:45.903Z,43.17
2018-05-02T07:02:38.899Z,43.98
2018-05-02T07:03:38.962Z,43.58
2018-05-02T07:05:31.975Z,42.80
2018-05-02T07:06:32.041Z,43.48
2018-05-02T07:08:25.048Z,43.24
2018-05-02T07:09:25.112Z,41.93
2018-05-02T07:11:18.122Z,39.57
2018-05-02T07:12:18.184Z,38.73
2018-05-02T07:14:11.186Z,37.44
2018-05-02T07:15:11.260Z,37.94
2018-05-02T07:17:04.270Z,38.33
2018-05-02T07:18:04.332Z,37.55
2018-05-02T07:19:57.431Z,37.63
2018-05-02T07:20:57.409Z,37.46
2018-05-02T07:22:50.431Z,37.71
2018-05-02T07:23:50.487Z,38.14
2018-05-02T07:25:43.495Z,39.41
2018-05-02T07:26:43.564Z,40.47
2018-05-02T07:28:36.573Z,38.70
2018-05-02T07:29:36.640Z,38.04
2018-05-02T07:31:29.667Z,35.85
2018-05-02T07:32:29.747Z,35.64
2018-05-02T07:34:22.742Z,36.94
2018-05-02T07:35:22.863Z,37.32
2018-05-02T07:37:15.825Z,39.09
2018-05-02T07:38:15.896Z,40.45
2018-05-02T07:40:08.905Z,38.95
2018-05-02T07:41:08.979Z,38.37
2018-05-02T07:43:01.993Z,37.82
2018-05-02T07:44:02.056Z,37.81
2018-05-02T07:45:55.068Z,38.28
2018-05-02T07:46:55.141Z,38.64
2018-05-02T07:48:48.161Z,38.71
2018-05-02T07:49:48.225Z,38.46
2018-05-02T07:51:41.248Z,37.08
2018-05-02T07:52:41.319Z,38.04
2018-05-02T07:54:34.331Z,37.15
2018-05-02T07:55:34.403Z,37.15
2018-05-02T07:57:27.422Z,37.48
2018-05-02T07:58:27.490Z,40.44
2018-05-02T08:00:20.516Z,40.92
2018-05-02T08:01:20.581Z,39.84
2018-05-02T08:03:13.592Z,40.88
2018-05-02T08:04:13.662Z,41.94
2018-05-02T08:06:06.665Z,38.78
2018-05-02T08:07:06.868Z,36.38
2018-05-02T08:08:59.762Z,35.70
2018-05-02T08:09:59.827Z,35.31
2018-05-02T08:11:52.843Z,35.23
2018-05-02T08:12:52.908Z,34.19
2018-05-02T08:14:45.923Z,33.28
2018-05-02T08:15:45.997Z,33.36
2018-05-02T08:17:39.027Z,32.78
2018-05-02T08:18:39.083Z,32.78
2018-05-02T08:20:32.093Z,34.47
2018-05-02T08:21:32.199Z,34.59
2018-05-02T08:23:25.194Z,34.57
2018-05-02T08:24:25.260Z,33.73
2018-05-02T08:26:18.295Z,33.64
2018-05-02T08:27:18.359Z,33.65
2018-05-02T08:29:11.376Z,33.89
2018-05-02T08:30:11.504Z,34.75
2018-05-02T08:32:04.464Z,35.72
2018-05-02T08:33:04.534Z,35.73
2018-05-02T08:34:57.548Z,35.42
2018-05-02T08:35:57.622Z,35.50
2018-05-02T08:37:50.643Z,35.21
2018-05-02T08:38:50.728Z,35.76
2018-05-02T08:40:43.727Z,37.02
2018-05-02T08:41:43.818Z,38.39
2018-05-02T08:43:36.828Z,42.72
2018-05-02T08:44:36.899Z,42.13
2018-05-02T08:46:29.947Z,39.29
2018-05-02T08:47:29.985Z,37.87
2018-05-02T08:49:23.002Z,38.76
2018-05-02T08:50:23.069Z,37.90
2018-05-02T08:52:16.097Z,38.04
2018-05-02T08:53:16.166Z,38.81
2018-05-02T08:55:09.178Z,41.20
2018-05-02T08:56:09.248Z,43.24
2018-05-02T08:58:02.264Z,43.49
2018-05-02T08:59:02.328Z,44.79
2018-05-02T09:00:55.341Z,47.46
2018-05-02T09:01:55.426Z,47.72
2018-05-02T09:03:48.463Z,43.59
2018-05-02T09:04:48.487Z,43.13
2018-05-02T09:06:41.496Z,45.06
2018-05-02T09:07:41.566Z,47.05
2018-05-02T09:09:34.578Z,45.97
2018-05-02T09:10:34.653Z,43.92
2018-05-02T09:12:27.652Z,45.35
2018-05-02T09:13:27.714Z,47.51
2018-05-02T09:15:20.750Z,49.60
2018-05-02T09:16:20.821Z,48.61
2018-05-02T09:18:13.826Z,46.23
2018-05-02T09:19:13.886Z,46.16
2018-05-02T09:21:06.891Z,47.22
2018-05-02T09:22:06.960Z,47.87
2018-05-02T09:24:00.089Z,48.79
2018-05-02T09:25:00.033Z,48.69
2018-05-02T09:26:53.026Z,48.85
2018-05-02T09:27:53.093Z,48.47
2018-05-02T09:29:46.101Z,48.79
2018-05-02T09:30:46.159Z,48.59
2018-05-02T09:32:39.163Z,48.81
2018-05-02T09:33:39.225Z,49.10
2018-05-02T09:35:32.243Z,47.77
2018-05-02T09:36:32.289Z,46.02
2018-05-02T09:38:25.295Z,46.77
2018-05-02T09:39:25.354Z,46.58
2018-05-02T09:41:18.357Z,47.71
2018-05-02T09:42:18.421Z,47.89
2018-05-02T09:44:11.455Z,47.01
2018-05-02T09:45:11.486Z,47.22
2018-05-02T09:47:04.483Z,47.87
2018-05-02T09:48:04.551Z,48.07
2018-05-02T09:49:57.550Z,48.64
2018-05-02T09:50:57.614Z,49.50
2018-05-02T09:52:50.614Z,47.97
2018-05-02T09:53:50.677Z,49.60
2018-05-02T09:55:43.671Z,49.12
2018-05-02T09:56:43.735Z,48.64
2018-05-02T09:58:36.746Z,47.13
2018-05-02T09:59:36.805Z,46.53
2018-05-02T10:01:29.799Z,47.89
2018-05-02T10:02:29.869Z,47.99
2018-05-02T10:04:22.872Z,48.16
2018-05-02T10:05:22.951Z,47.87
2018-05-02T10:07:15.922Z,48.16
2018-05-02T10:08:15.987Z,47.97
2018-05-02T10:10:09.011Z,49.60
2018-05-02T10:11:09.044Z,49.60
2018-05-02T10:13:02.045Z,47.97
2018-05-02T10:14:02.103Z,48.83
2018-05-02T10:15:55.097Z,49.31
2018-05-02T10:16:55.161Z,48.64
2018-05-02T10:18:48.161Z,48.54
2018-05-02T10:19:48.218Z,48.35
2018-05-02T10:21:41.212Z,47.58
2018-05-02T10:22:41.275Z,50.17
2018-05-02T10:24:34.276Z,49.50
2018-05-02T10:25:34.340Z,49.48
2018-05-02T10:27:27.332Z,49.96
2018-05-02T10:28:27.395Z,49.38
2018-05-02T10:30:20.404Z,51.04
2018-05-02T10:31:20.454Z,50.46
2018-05-02T10:33:13.454Z,46.72
2018-05-02T10:34:13.516Z,47.68
2018-05-02T10:36:06.507Z,48.61
2018-05-02T10:37:06.565Z,47.85
2018-05-02T10:38:59.570Z,48.52
2018-05-02T10:39:59.640Z,48.33
2018-05-02T10:41:52.618Z,49.67
2018-05-02T10:42:52.683Z,50.15
2018-05-02T10:44:45.682Z,49.29
2018-05-02T10:45:45.740Z,48.54
2018-05-02T10:47:38.749Z,49.98
2018-05-02T10:48:38.808Z,49.98
2018-05-02T10:50:31.874Z,48.83
2018-05-02T10:51:31.872Z,47.77
2018-05-02T10:53:24.874Z,47.77
2018-05-02T10:54:24.937Z,48.16
2018-05-02T10:56:17.923Z,49.31
2018-05-02T10:57:17.981Z,47.49
2018-05-02T10:59:10.981Z,47.58
2018-05-02T11:00:11.038Z,47.87
2018-05-02T11:02:04.044Z,45.95
2018-05-02T11:03:04.093Z,45.47
2018-05-02T11:04:57.103Z,48.93
2018-05-02T11:05:57.153Z,47.58
2018-05-02T11:07:50.150Z,46.72
2018-05-02T11:08:50.210Z,46.72
2018-05-02T11:10:43.211Z,48.54
2018-05-02T11:11:43.266Z,47.97
2018-05-02T11:13:36.265Z,45.54
2018-05-02T11:14:36.319Z,47.17
2018-05-02T11:16:29.312Z,47.56
2018-05-02T11:17:29.376Z,49.79
2018-05-02T11:19:22.402Z,47.30
2018-05-02T11:20:22.429Z,45.28
2018-05-02T11:22:15.422Z,47.51
2018-05-02T11:23:15.485Z,46.43
2018-05-02T11:25:08.492Z,45.47
2018-05-02T11:26:08.545Z,45.95
2018-05-02T11:28:01.537Z,45.95
2018-05-02T11:29:01.631Z,46.72
2018-05-02T11:30:54.597Z,46.81
2018-05-02T11:31:54.660Z,46.34
2018-05-02T11:33:47.652Z,46.53
2018-05-02T11:34:47.788Z,47.01
2018-05-02T11:36:40.698Z,46.65
2018-05-02T11:37:40.765Z,45.78
2018-05-02T11:39:33.765Z,46.26
2018-05-02T11:40:33.829Z,46.36
2018-05-02T11:42:26.814Z,44.73
2018-05-02T11:43:26.877Z,46.74
2018-05-02T11:45:19.875Z,45.59
2018-05-02T11:46:19.988Z,46.17
2018-05-02T11:48:12.924Z,44.73
2018-05-02T11:49:12.996Z,46.07
2018-05-02T11:51:05.990Z,45.68
2018-05-02T11:52:06.045Z,44.61
2018-05-02T11:53:59.044Z,45.00
2018-05-02T11:54:59.100Z,45.00
2018-05-02T11:56:52.095Z,45.95
2018-05-02T11:57:52.164Z,44.80
2018-05-02T11:59:45.175Z,45.98
2018-05-02T12:00:45.212Z,45.30
2018-05-02T12:02:38.243Z,45.68
2018-05-02T12:03:38.285Z,45.61
2018-05-02T12:05:31.268Z,44.65
2018-05-02T12:06:31.326Z,44.75
2018-05-02T12:08:24.315Z,46.48
2018-05-02T12:09:24.397Z,44.75
2018-05-02T12:11:17.379Z,44.84
2018-05-02T12:12:17.439Z,44.84
2018-05-02T12:14:10.440Z,45.40
2018-05-02T12:15:10.489Z,45.78
2018-05-02T12:17:03.485Z,45.90
2018-05-02T12:18:03.547Z,45.71
2018-05-02T12:19:56.551Z,45.42
2018-05-02T12:20:56.608Z,46.28
2018-05-02T12:22:49.600Z,45.52
2018-05-02T12:23:49.664Z,44.94
2018-05-02T12:25:42.664Z,43.50
2018-05-02T12:26:42.744Z,44.75
2018-05-02T12:28:35.713Z,46.58
2018-05-02T12:29:35.778Z,46.86
2018-05-02T12:31:28.775Z,46.38
2018-05-02T12:32:28.833Z,44.94
2018-05-02T12:34:21.862Z,45.25
2018-05-02T12:35:21.907Z,44.17
2018-05-02T12:37:14.882Z,44.75
2018-05-02T12:38:14.944Z,44.17
2018-05-02T12:40:07.944Z,44.87
2018-05-02T12:41:08.006Z,43.98
2018-05-02T12:43:00.995Z,44.65
2018-05-02T12:44:01.060Z,45.54
2018-05-02T12:45:54.058Z,44.68
2018-05-02T12:46:54.115Z,44.87
2018-05-02T12:48:47.116Z,44.10
2018-05-02T12:49:47.182Z,44.20
2018-05-02T12:51:40.178Z,48.04
2018-05-02T12:52:40.234Z,45.45
2018-05-02T12:54:33.364Z,43.62
2018-05-02T12:55:33.296Z,44.58
2018-05-02T12:57:26.795Z,46.31
2018-05-02T12:58:26.884Z,45.83
2018-05-02T13:00:19.860Z,44.38
2018-05-02T13:01:19.923Z,45.15
2018-05-02T13:03:12.914Z,43.91
2018-05-02T13:04:12.978Z,45.25
2018-05-02T13:06:05.978Z,43.71
2018-05-02T13:07:06.035Z,44.87
2018-05-02T13:08:59.028Z,43.91
2018-05-02T13:09:59.103Z,43.91
2018-05-02T13:11:52.103Z,44.65
2018-05-02T13:12:52.165Z,45.81
2018-05-02T13:14:45.167Z,45.92
2018-05-02T13:15:45.297Z,45.92
2018-05-02T13:17:38.214Z,44.77
2018-05-02T13:18:38.277Z,45.54
2018-05-02T13:20:31.279Z,44.68
2018-05-02T13:21:31.342Z,44.77
2018-05-02T13:23:24.432Z,43.81
2018-05-02T13:24:24.393Z,44.58
2018-05-02T13:26:17.466Z,45.25
2018-05-02T13:27:17.458Z,46.72
2018-05-02T13:29:10.457Z,45.76
2018-05-02T13:30:10.522Z,46.81
2018-05-02T13:32:03.523Z,43.26
2018-05-02T13:33:03.629Z,43.45
2018-05-02T13:34:56.577Z,46.91
2018-05-02T13:35:56.635Z,46.33
2018-05-02T13:37:49.628Z,46.43
2018-05-02T13:38:49.693Z,45.37
2018-05-02T13:40:42.690Z,45.37
2018-05-02T13:41:42.751Z,45.18
2018-05-02T13:43:35.751Z,44.79
2018-05-02T13:44:35.813Z,44.12
2018-05-02T13:46:28.821Z,43.62
2018-05-02T13:47:28.883Z,43.91
2018-05-02T13:49:21.915Z,45.37
2018-05-02T13:50:21.954Z,45.47
2018-05-02T13:52:14.937Z,43.74
2018-05-02T13:53:15.000Z,44.20
2018-05-02T13:55:08.081Z,44.20
2018-05-02T13:56:08.072Z,45.06
2018-05-02T13:58:01.046Z,45.85
2018-05-02T13:59:01.124Z,45.85
2018-05-02T14:00:54.661Z,44.70
2018-05-02T14:01:54.676Z,43.64
2018-05-02T14:03:47.690Z,44.79
2018-05-02T14:04:47.797Z,44.60
2018-05-02T14:06:41.269Z,44.89
2018-05-02T14:07:41.317Z,45.56
2018-05-02T14:09:34.819Z,45.95
2018-05-02T14:10:34.886Z,44.79
2018-05-02T14:12:28.414Z,44.02
2018-05-02T14:13:28.465Z,44.89
2018-05-02T14:15:21.983Z,44.70
2018-05-02T14:16:22.035Z,45.56
2018-05-02T14:18:15.027Z,45.20
2018-05-02T14:19:15.095Z,44.70
2018-05-02T14:21:08.093Z,44.79
2018-05-02T14:22:08.145Z,44.12
2018-05-02T14:24:01.151Z,43.84
2018-05-02T14:25:01.209Z,43.64
2018-05-02T14:26:54.218Z,43.26
2018-05-02T14:27:54.263Z,43.52
2018-05-02T14:29:47.259Z,43.71
2018-05-02T14:30:47.321Z,43.81
2018-05-02T14:32:40.342Z,44.77
2018-05-02T14:33:40.377Z,44.68
2018-05-02T14:35:33.379Z,44.10
2018-05-02T14:36:33.437Z,45.15
2018-05-02T14:38:26.444Z,44.96
2018-05-02T14:39:26.494Z,44.96
2018-05-02T14:41:19.493Z,46.31
2018-05-02T14:42:19.554Z,45.66
2018-05-02T14:44:12.541Z,44.79
2018-05-02T14:45:12.630Z,44.79
2018-05-02T14:47:05.608Z,45.56
2018-05-02T14:48:05.664Z,45.66
2018-05-02T14:49:58.660Z,44.89
2018-05-02T14:50:58.721Z,44.22
2018-05-02T14:52:51.722Z,43.81
2018-05-02T14:53:51.776Z,43.81
2018-05-02T14:55:44.776Z,43.74
2018-05-02T14:56:44.837Z,44.79
2018-05-02T14:58:37.835Z,44.79
2018-05-02T14:59:37.904Z,44.12
2018-05-02T15:01:30.973Z,45.08
2018-05-02T15:02:30.963Z,45.56
2018-05-02T15:04:23.960Z,45.85
2018-05-02T15:05:24.028Z,45.76
2018-05-02T15:07:17.088Z,45.47
2018-05-02T15:08:17.100Z,44.60
2018-05-02T15:10:10.080Z,45.47
2018-05-02T15:11:10.139Z,45.56
2018-05-02T15:13:03.143Z,44.89
2018-05-02T15:14:03.201Z,44.70
2018-05-02T15:15:56.213Z,44.02
2018-05-02T15:16:56.265Z,45.37
2018-05-02T15:18:49.266Z,44.99
2018-05-02T15:19:49.326Z,44.70
2018-05-02T15:21:42.335Z,44.99
2018-05-02T15:22:42.388Z,45.37
2018-05-02T15:24:35.393Z,45.18
2018-05-02T15:25:35.445Z,45.85
2018-05-02T15:27:28.445Z,45.18
2018-05-02T15:28:28.504Z,45.28
2018-05-02T15:30:21.497Z,44.89
2018-05-02T15:31:21.560Z,45.28
2018-05-02T15:33:15.070Z,45.08
2018-05-02T15:34:15.123Z,45.08
2018-05-02T15:36:08.127Z,45.56
2018-05-02T15:37:08.186Z,45.47
2018-05-02T15:39:01.179Z,44.79
2018-05-02T15:40:01.241Z,44.70
2018-05-02T15:41:54.243Z,46.23
2018-05-02T15:42:54.296Z,45.08
2018-05-02T15:44:47.293Z,44.89
2018-05-02T15:45:47.357Z,46.62
2018-05-02T15:47:40.357Z,47.20
2018-05-02T15:48:40.417Z,47.20
2018-05-02T15:50:33.426Z,46.62
2018-05-02T15:51:33.485Z,46.53
2018-05-02T15:53:26.499Z,46.04
2018-05-02T15:54:26.556Z,46.53
2018-05-02T15:56:19.556Z,46.53
2018-05-02T15:57:19.617Z,46.72
2018-05-02T15:59:12.610Z,46.64
2018-05-02T16:00:12.673Z,46.64
2018-05-02T16:02:05.679Z,45.59
2018-05-02T16:03:05.738Z,44.02
2018-05-02T16:04:58.734Z,43.35
2018-05-02T16:05:58.798Z,43.45
2018-05-02T16:07:51.817Z,43.66
2018-05-02T16:08:51.876Z,43.93
2018-05-02T16:10:44.870Z,44.70
2018-05-02T16:11:44.934Z,44.31
2018-05-02T16:13:37.937Z,44.00
2018-05-02T16:14:37.997Z,43.93
2018-05-02T16:16:31.097Z,45.18
2018-05-02T16:17:31.063Z,45.37
2018-05-02T16:19:24.053Z,46.33
2018-05-02T16:20:24.114Z,45.95
2018-05-02T16:22:17.122Z,44.70
2018-05-02T16:23:17.177Z,44.22
2018-05-02T16:25:10.174Z,45.28
2018-05-02T16:26:10.235Z,46.23
2018-05-02T16:28:03.237Z,45.85
2018-05-02T16:29:03.297Z,45.85
2018-05-02T16:30:56.287Z,45.37
2018-05-02T16:31:56.353Z,45.18
2018-05-02T16:33:49.355Z,45.83
2018-05-02T16:34:49.412Z,45.83
2018-05-02T16:36:42.413Z,46.43
2018-05-02T16:37:42.471Z,45.25
2018-05-02T16:39:35.464Z,45.28
2018-05-02T16:40:35.528Z,44.70
2018-05-02T16:42:28.531Z,45.35
2018-05-02T16:43:28.591Z,45.73
2018-05-02T16:45:21.585Z,46.12
2018-05-02T16:46:21.655Z,45.64
2018-05-02T16:48:14.655Z,46.09
2018-05-02T16:49:14.717Z,45.81
2018-05-02T16:51:07.715Z,46.28
2018-05-02T16:52:07.776Z,46.69
2018-05-02T16:54:00.777Z,47.15
2018-05-02T16:55:00.833Z,47.34
2018-05-02T16:56:53.839Z,47.05
2018-05-02T16:57:53.897Z,47.34
2018-05-02T16:59:46.888Z,47.75
2018-05-02T17:00:46.954Z,47.66
2018-05-02T17:02:39.949Z,48.04
2018-05-02T17:03:40.014Z,48.33
2018-05-02T17:05:32.999Z,46.98
2018-05-02T17:06:33.069Z,46.86
2018-05-02T17:08:26.065Z,46.86
2018-05-02T17:09:27.137Z,46.48
2018-05-02T17:11:19.117Z,46.50
2018-05-02T17:12:19.175Z,47.08
2018-05-02T17:14:12.177Z,47.44
2018-05-02T17:15:12.237Z,47.05
2018-05-02T17:17:05.770Z,48.11
2018-05-02T17:18:05.810Z,47.53
2018-05-02T17:19:58.797Z,47.05
2018-05-02T17:20:58.956Z,47.44
2018-05-02T17:22:51.872Z,47.25
2018-05-02T17:23:51.928Z,47.53
2018-05-02T17:25:44.936Z,47.34
2018-05-02T17:26:44.995Z,47.72
2018-05-02T17:28:37.977Z,47.53
2018-05-02T17:29:38.037Z,47.63
2018-05-02T17:31:31.027Z,47.82
2018-05-02T17:32:31.094Z,47.63
2018-05-02T17:34:24.088Z,47.72
2018-05-02T17:35:24.146Z,47.44
2018-05-02T17:37:17.145Z,47.03
2018-05-02T17:38:17.204Z,47.80
2018-05-02T17:40:10.198Z,47.89
2018-05-02T17:41:10.263Z,47.99
2018-05-02T17:43:03.267Z,48.76
2018-05-02T17:44:03.325Z,48.95
2018-05-02T17:45:56.312Z,48.76
2018-05-02T17:46:56.379Z,48.28
2018-05-02T17:48:49.371Z,49.05
2018-05-02T17:49:49.429Z,48.47
2018-05-02T17:51:42.427Z,49.15
2018-05-02T17:52:42.589Z,49.62
2018-05-02T17:54:35.494Z,50.10
2018-05-02T17:55:35.543Z,49.52
2018-05-02T17:57:28.546Z,50.68
2018-05-02T17:58:28.608Z,50.20
2018-05-02T18:00:21.598Z,49.52
2018-05-02T18:01:21.660Z,49.33
2018-05-02T18:03:14.661Z,49.98
2018-05-02T18:04:14.720Z,50.17
2018-05-02T18:06:07.712Z,49.69
2018-05-02T18:07:07.777Z,49.50
2018-05-02T18:09:00.778Z,49.69
2018-05-02T18:10:00.839Z,50.08
2018-05-02T18:11:53.830Z,49.88
2018-05-02T18:12:53.889Z,50.27
2018-05-02T18:14:46.889Z,51.04
2018-05-02T18:15:46.948Z,50.73
2018-05-02T18:17:39.950Z,51.23
2018-05-02T18:18:40.008Z,52.19
2018-05-02T18:20:33.000Z,50.82
2018-05-02T18:21:33.063Z,51.30
2018-05-02T18:23:26.060Z,52.16
2018-05-02T18:24:26.117Z,52.45
2018-05-02T18:26:19.115Z,52.07
2018-05-02T18:27:19.179Z,51.68
2018-05-02T18:29:12.178Z,51.30
2018-05-02T18:30:12.234Z,51.68
2018-05-02T18:32:05.226Z,52.74
2018-05-02T18:33:05.291Z,52.71
2018-05-02T18:34:58.296Z,52.33